createdAt,value
2018-02-20T00:01:43.736Z,95.4
2018-02-20T00:11:32.744Z,101.2
2018-02-20T00:21:32.696Z,94.5
2018-02-20T00:31:32.857Z,100.2
2018-02-20T00:41:26.317Z,86.7
2018-02-20T00:51:32.338Z,102.0
2018-02-20T01:01:32.066Z,85.9
2018-02-20T01:11:33.512Z,92.6
2018-02-20T01:21:32.281Z,97.8
2018-02-20T01:31:32.749Z,98.4
2018-02-20T01:41:33.514Z,89.6
2018-02-20T01:51:43.781Z,90.6
2018-02-20T02:01:33.159Z,91.2
2018-02-20T02:11:58.850Z,94.9
2018-02-20T02:21:32.343Z,98.0
2018-02-20T02:31:28.869Z,93.5
2018-02-20T02:41:33.665Z,90.3
2018-02-20T02:51:32.778Z,82.5
2018-02-20T03:01:32.904Z,79.7
2018-02-20T05:31:33.729Z,75.5
2018-02-20T05:42:40.347Z,76.2
2018-02-20T05:51:33.616Z,73.8
2018-02-20T06:11:34.437Z,88.4
2018-02-20T06:21:32.725Z,72.3
2018-02-20T06:41:32.208Z,83.2
2018-02-20T10:01:33.061Z,54.9
2018-02-20T10:11:28.164Z,68.7
2018-02-20T10:21:32.487Z,60.2
2018-02-20T10:31:32.976Z,63.6
2018-02-20T10:41:32.728Z,64.6
2018-02-20T10:51:32.722Z,72.5
2018-02-20T11:01:34.793Z,66.6
2018-02-20T12:41:53.594Z,54.6
2018-02-20T12:51:32.569Z,56.2
2018-02-20T13:01:33.602Z,44.2
2018-02-20T13:21:33.293Z,49.3
2018-02-20T13:31:34.403Z,48.6
2018-02-20T14:31:54.326Z,48.5
2018-02-20T14:41:32.982Z,46.9
2018-02-20T14:52:03.838Z,47.1
2018-02-20T15:01:29.813Z,49.5
2018-02-20T15:11:32.461Z,44.7
2018-02-20T15:21:33.647Z,45.4
2018-02-20T15:32:32.040Z,41.2
2018-02-20T15:41:32.351Z,39.6
2018-02-20T15:51:56.425Z,50.3
2018-02-20T16:01:33.322Z,44.9
2018-02-20T16:11:28.458Z,39.3
2018-02-20T16:21:33.038Z,44.0
2018-02-20T16:31:32.569Z,47.1
2018-02-20T16:41:26.401Z,50.4
2018-02-20T16:51:32.675Z,53.0
2018-02-20T17:01:27.562Z,61.1
2018-02-20T17:11:28.183Z,47.4
2018-02-20T17:21:27.132Z,42.4
2018-02-20T17:31:28.402Z,44.2
2018-02-20T17:41:32.467Z,51.2
2018-02-20T17:51:34.391Z,53.2
2018-02-20T18:01:33.547Z,48.6
2018-02-20T18:11:33.578Z,45.0
2018-02-20T18:21:33.437Z,47.1
2018-02-20T18:31:28.349Z,43.0
2018-02-20T18:41:33.414Z,47.2
2018-02-20T18:51:32.732Z,52.3
2018-02-20T19:01:32.184Z,57.9
2018-02-20T19:11:31.769Z,68.4
2018-02-20T19:21:37.568Z,63.0
2018-02-20T19:31:33.818Z,53.3
2018-02-20T19:41:43.254Z,51.3
2018-02-20T19:51:28.932Z,56.5
2018-02-20T20:01:48.283Z,53.6
2018-02-20T20:11:33.474Z,44.9
2018-02-20T20:21:26.586Z,51.0
2018-02-20T20:31:27.419Z,47.4
2018-02-20T20:41:42.927Z,47.6
2018-02-20T20:51:34.002Z,43.6
2018-02-20T21:11:32.515Z,46.5
2018-02-20T21:21:27.504Z,43.4
2018-02-20T21:31:30.594Z,46.7
2018-02-20T21:41:32.928Z,66.4
2018-02-20T21:51:31.744Z,60.7
2018-02-20T22:01:27.816Z,67.6
2018-02-20T22:11:31.953Z,71.5
2018-02-20T22:21:32.138Z,61.0
2018-02-20T22:31:27.992Z,60.0
2018-02-20T22:41:32.141Z,63.8
2018-02-20T22:51:32.663Z,58.9
2018-02-20T23:01:32.516Z,57.5
2018-02-20T23:22:24.327Z,62.2
2018-02-20T23:31:29.872Z,62.0
2018-02-20T23:41:28.714Z,61.7
